Time;durP1;ratioP1;P1;durP2;ratioP2;P2;SDS_P1;SDS_P2;PMS_P1;PMS_P2;Temp;Humidity;BMP_temperature;BMP_pressure;BME280_temperature;BME280_humidity;BME280_pressure;Samples;Min_cycle;Max_cycle;Signal;HPM_P1;HPM_P2
2021/10/22 12:36:42;;;;;;;12.63;2.13;;;;;;;;;;6114962;23;20191;-90
2021/10/22 12:39:48;;;;;;;11.77;2.10;;;;;;;;;;6113682;23;20267;-91
2021/10/22 12:43:22;;;;;;;9.00;1.95;;;;;;;;;;6113907;23;20181;-90
2021/10/22 12:46:27;;;;;;;12.15;2.42;;;;;;;;;;6096208;23;20601;-89
2021/10/22 12:49:33;;;;;;;18.23;2.53;;;;;;;;;;6112759;23;20285;-90
2021/10/22 12:52:40;;;;;;;12.15;2.75;;;;;;;;;;6112031;23;20226;-89
2021/10/22 12:59:09;;;;;;;12.38;2.28;;;;;;;;;;6112772;23;20245;-91
2021/10/22 13:02:25;;;;;;;12.55;2.00;;;;;;;;;;6126893;23;20230;-90
2021/10/22 13:05:34;;;;;;;9.93;1.95;;;;;;;;;;6112306;23;20246;-92
2021/10/22 13:22:30;;;;;;;9.95;1.75;;;;;;;;;;6109947;23;20234;-92
2021/10/22 13:25:38;;;;;;;7.68;1.83;;;;;;;;;;6111187;23;20182;-90
2021/10/22 13:28:44;;;;;;;6.97;1.50;;;;;;;;;;6111767;23;20185;-90
2021/10/22 13:31:51;;;;;;;12.15;2.10;;;;;;;;;;6112243;23;20169;-91
2021/10/22 13:38:16;;;;;;;7.13;1.80;;;;;;;;;;6112303;23;20224;-91
2021/10/22 13:41:23;;;;;;;8.90;1.92;;;;;;;;;;6113257;23;20178;-90
2021/10/22 13:44:29;;;;;;;9.98;2.25;;;;;;;;;;6114164;23;20198;-90
2021/10/22 13:47:34;;;;;;;11.07;1.92;;;;;;;;;;6109862;23;20170;-90
2021/10/22 13:50:41;;;;;;;6.28;1.40;;;;;;;;;;6111224;23;20182;-89
2021/10/22 13:53:49;;;;;;;4.90;1.60;;;;;;;;;;6110305;23;20214;-89
2021/10/22 13:57:02;;;;;;;11.00;1.90;;;;;;;;;;6112450;23;20182;-90
2021/10/22 14:00:14;;;;;;;10.35;1.70;;;;;;;;;;6112439;23;20221;-91
2021/10/22 14:03:23;;;;;;;12.50;2.20;;;;;;;;;;6110437;23;20193;-91
2021/10/22 14:06:35;;;;;;;13.93;2.90;;;;;;;;;;6112471;23;20238;-90
2021/10/22 14:09:41;;;;;;;17.17;2.40;;;;;;;;;;6111753;23;20178;-90
2021/10/22 14:12:58;;;;;;;14.02;1.90;;;;;;;;;;6109583;23;20173;-90
2021/10/22 14:24:10;;;;;;;9.13;1.60;;;;;;;;;;6082204;23;20256;-91
2021/10/22 14:30:44;;;;;;;9.40;1.95;;;;;;;;;;6111480;23;20194;-91
2021/10/22 14:33:50;;;;;;;15.13;1.60;;;;;;;;;;6112290;23;20230;-90
2021/10/22 14:36:56;;;;;;;6.68;1.55;;;;;;;;;;6110881;23;20223;-91
2021/10/22 14:40:08;;;;;;;12.93;2.00;;;;;;;;;;6109766;23;20245;-91
2021/10/22 14:43:17;;;;;;;4.70;1.35;;;;;;;;;;6109538;23;20181;-91
2021/10/22 14:46:29;;;;;;;7.82;1.35;;;;;;;;;;6108899;23;20177;-90
2021/10/22 14:49:44;;;;;;;9.38;1.70;;;;;;;;;;6113142;23;20508;-90
2021/10/22 14:53:12;;;;;;;8.75;1.50;;;;;;;;;;6112899;23;20165;-91
2021/10/22 14:56:17;;;;;;;8.82;1.60;;;;;;;;;;6113259;23;20169;-91
2021/10/22 14:59:23;;;;;;;13.18;2.05;;;;;;;;;;6128367;23;20232;-91
2021/10/22 15:02:31;;;;;;;8.25;1.98;;;;;;;;;;6112958;23;20186;-91
2021/10/22 15:05:41;;;;;;;7.53;1.50;;;;;;;;;;6114674;23;20215;-90
2021/10/22 15:08:48;;;;;;;8.73;1.50;;;;;;;;;;6132220;23;20178;-92
2021/10/22 15:11:54;;;;;;;7.85;1.60;;;;;;;;;;6113637;23;20162;-90
2021/10/22 15:15:18;;;;;;;9.15;2.00;;;;;;;;;;6113458;23;20174;-90
2021/10/22 15:18:29;;;;;;;22.42;7.55;;;;;;;;;;6130870;23;20236;-89
2021/10/22 15:21:36;;;;;;;10.55;2.10;;;;;;;;;;6112182;23;20178;-90
2021/10/22 15:24:42;;;;;;;12.10;2.30;;;;;;;;;;6114457;23;20210;-89
2021/10/22 15:27:47;;;;;;;10.85;1.75;;;;;;;;;;6111774;23;20165;-90
2021/10/22 15:30:55;;;;;;;15.88;1.98;;;;;;;;;;6114282;23;20194;-89
2021/10/22 15:34:03;;;;;;;9.10;1.60;;;;;;;;;;6113771;23;20225;-89
2021/10/22 15:37:08;;;;;;;8.30;1.70;;;;;;;;;;6113663;23;20230;-87
2021/10/22 15:40:19;;;;;;;14.63;2.00;;;;;;;;;;6114947;23;20165;-89
2021/10/22 15:43:28;;;;;;;7.15;1.50;;;;;;;;;;6115199;23;20165;-89
2021/10/22 15:46:41;;;;;;;7.60;2.03;;;;;;;;;;6115123;23;20201;-90
2021/10/22 15:50:10;;;;;;;16.27;2.20;;;;;;;;;;6132979;23;20198;-89
2021/10/22 15:53:23;;;;;;;10.68;1.65;;;;;;;;;;6114120;23;20223;-90
2021/10/22 15:56:31;;;;;;;45.95;12.05;;;;;;;;;;6113551;23;20202;-92
2021/10/22 15:59:46;;;;;;;13.75;2.25;;;;;;;;;;6114684;23;20182;-91
2021/10/22 16:03:01;;;;;;;7.68;1.58;;;;;;;;;;6116507;23;20519;-91
2021/10/22 16:10:37;;;;;;;9.88;2.65;;;;;;;;;;6112572;23;20221;-91
2021/10/22 16:25:42;;;;;;;8.57;2.17;;;;;;;;;;6109779;23;20193;-90
2021/10/22 16:28:47;;;;;;;11.40;2.47;;;;;;;;;;6110485;23;20178;-90
2021/10/22 16:31:54;;;;;;;11.20;2.72;;;;;;;;;;6112347;23;20173;-90
2021/10/22 16:38:25;;;;;;;13.32;3.45;;;;;;;;;;6111732;23;20170;-88
2021/10/22 16:41:36;;;;;;;15.13;3.00;;;;;;;;;;6112930;23;20178;-90
2021/10/22 16:44:52;;;;;;;9.70;2.40;;;;;;;;;;6111998;23;20650;-90
2021/10/22 16:47:58;;;;;;;8.63;2.67;;;;;;;;;;6114639;23;20177;-91
2021/10/22 16:51:04;;;;;;;13.43;2.47;;;;;;;;;;6112616;23;20239;-89
2021/10/22 16:54:09;;;;;;;9.90;1.92;;;;;;;;;;6112936;23;20182;-90
2021/10/22 16:57:24;;;;;;;11.70;1.98;;;;;;;;;;6115049;23;20335;-91
2021/10/22 17:00:31;;;;;;;8.93;2.30;;;;;;;;;;6113254;23;20174;-90
2021/10/22 17:03:36;;;;;;;8.07;2.10;;;;;;;;;;6110914;23;20181;-89
2021/10/22 17:06:44;;;;;;;11.93;2.50;;;;;;;;;;6113476;23;20170;-89
2021/10/22 17:09:52;;;;;;;11.93;2.60;;;;;;;;;;6113068;23;20178;-91
2021/10/22 17:13:13;;;;;;;11.70;2.30;;;;;;;;;;6114395;23;20280;-89
2021/10/22 17:16:30;;;;;;;6.67;2.00;;;;;;;;;;6113119;23;20428;-92
2021/10/22 17:19:39;;;;;;;13.73;2.47;;;;;;;;;;6115236;23;20194;-91
2021/10/22 17:22:52;;;;;;;10.27;1.90;;;;;;;;;;6135404;23;20183;-90
2021/10/22 17:25:57;;;;;;;8.97;1.90;;;;;;;;;;6115317;23;20322;-88
2021/10/22 17:29:03;;;;;;;12.50;2.40;;;;;;;;;;6115876;23;20158;-90
2021/10/22 17:32:10;;;;;;;21.57;3.10;;;;;;;;;;6115477;23;20174;-88
2021/10/22 17:35:17;;;;;;;15.23;2.63;;;;;;;;;;6114910;23;20201;-90
2021/10/22 17:38:23;;;;;;;17.03;3.00;;;;;;;;;;6114891;23;20178;-91
2021/10/22 17:41:29;;;;;;;15.57;3.40;;;;;;;;;;6113783;23;20210;-89
2021/10/22 17:44:35;;;;;;;11.77;3.47;;;;;;;;;;6115650;23;20201;-89
2021/10/22 17:47:50;;;;;;;17.37;5.87;;;;;;;;;;6129670;23;20166;-89
2021/10/22 17:50:56;;;;;;;17.73;4.53;;;;;;;;;;6114508;23;20178;-89
2021/10/22 17:54:02;;;;;;;20.73;4.53;;;;;;;;;;6132278;23;20173;-90
2021/10/22 18:00:31;;;;;;;28.87;8.73;;;;;;;;;;6116329;23;20222;-89
2021/10/22 18:03:39;;;;;;;19.90;6.17;;;;;;;;;;6115635;23;20170;-91
2021/10/22 18:06:51;;;;;;;23.60;5.90;;;;;;;;;;6113189;23;20166;-92
2021/10/22 18:09:57;;;;;;;20.57;5.00;;;;;;;;;;6114108;23;20181;-90
2021/10/22 18:20:46;;;;;;;16.83;6.10;;;;;;;;;;6113771;23;20174;-91
2021/10/22 18:23:52;;;;;;;13.67;4.30;;;;;;;;;;6113625;23;20162;-91
2021/10/22 18:27:02;;;;;;;29.03;6.60;;;;;;;;;;6111652;23;20201;-91
2021/10/22 18:30:09;;;;;;;110.73;31.57;;;;;;;;;;6112678;23;20190;-89
2021/10/22 18:36:40;;;;;;;27.23;8.80;;;;;;;;;;6131449;23;20190;-91
2021/10/22 18:39:55;;;;;;;44.87;19.30;;;;;;;;;;6112606;23;20174;-90
2021/10/22 18:43:05;;;;;;;23.87;7.90;;;;;;;;;;6112783;23;20161;-91
2021/10/22 18:46:17;;;;;;;23.97;8.90;;;;;;;;;;6113610;23;20205;-90
2021/10/22 22:29:18;;;;;;;12.03;3.93;;;;;;;;;;6215874;22;20220;-90
2021/10/22 22:32:24;;;;;;;20.40;5.73;;;;;;;;;;6228810;23;20167;-89
2021/10/22 22:35:29;;;;;;;8.50;4.10;;;;;;;;;;6228795;23;20158;-90
2021/10/22 22:38:35;;;;;;;12.83;4.80;;;;;;;;;;6229935;23;20293;-89
2021/10/22 22:41:40;;;;;;;19.00;4.37;;;;;;;;;;6228527;23;20170;-88
2021/10/22 22:44:47;;;;;;;19.87;4.03;;;;;;;;;;6229726;23;20287;-87
2021/10/22 22:47:53;;;;;;;9.07;3.50;;;;;;;;;;6229308;23;20198;-89
2021/10/22 22:50:57;;;;;;;15.30;3.77;;;;;;;;;;6229008;23;20496;-89
2021/10/22 22:54:03;;;;;;;11.60;3.57;;;;;;;;;;6229943;23;20202;-90
2021/10/22 22:57:09;;;;;;;12.27;4.37;;;;;;;;;;6227501;23;20175;-90
2021/10/22 23:00:17;;;;;;;12.13;3.90;;;;;;;;;;6227649;23;20167;-90
2021/10/22 23:03:22;;;;;;;17.40;4.10;;;;;;;;;;6227503;23;20155;-90
2021/10/22 23:06:27;;;;;;;10.03;4.43;;;;;;;;;;6227693;23;20642;-90
2021/10/22 23:09:32;;;;;;;10.83;4.00;;;;;;;;;;6226475;23;20167;-91
2021/10/22 23:12:38;;;;;;;12.80;4.50;;;;;;;;;;6226598;23;20175;-90
2021/10/22 23:19:34;;;;;;;10.13;3.73;;;;;;;;;;6227260;23;20160;-90
2021/10/22 23:22:42;;;;;;;10.37;3.40;;;;;;;;;;6225238;23;20171;-90
2021/10/22 23:25:48;;;;;;;10.13;3.60;;;;;;;;;;6225091;23;20203;-90
2021/10/22 23:28:53;;;;;;;12.73;3.90;;;;;;;;;;6225676;23;20181;-90
2021/10/22 23:31:59;;;;;;;9.07;3.67;;;;;;;;;;6226559;23;20178;-90
2021/10/22 23:35:06;;;;;;;13.27;3.33;;;;;;;;;;6227405;23;20221;-90
2021/10/22 23:38:12;;;;;;;10.63;3.17;;;;;;;;;;6226956;23;20162;-91
2021/10/22 23:41:17;;;;;;;11.80;3.33;;;;;;;;;;6226766;23;20175;-91
2021/10/22 23:44:22;;;;;;;10.13;3.20;;;;;;;;;;6228386;23;20154;-90
2021/10/22 23:47:27;;;;;;;13.53;3.70;;;;;;;;;;6230518;23;20167;-91
2021/10/22 23:50:35;;;;;;;10.23;3.67;;;;;;;;;;6229970;23;20154;-89
2021/10/22 23:53:40;;;;;;;11.17;3.67;;;;;;;;;;6229968;23;20194;-89
2021/10/22 23:56:45;;;;;;;11.10;3.50;;;;;;;;;;6230759;23;20258;-90
2021/10/22 23:59:51;;;;;;;16.33;4.60;;;;;;;;;;6229824;23;20286;-88
